Lac Ste. Marie, Canada
Current Conditions -  °F | °C
As of 12:00 PM on Monday 22 Dec 2014 (Local Time) from CYND Reporting Station
Haze Haze  
Wind Chill: 10°   Ceiling: 900
Heat Index: 21°   Visibility: 5mi
Dew Point: 18°   Wind: 10mph
Humidity: 86%   Direction: 90°E
Pressure: 30.36"   Gusts: NA
Location:  45.97°N, 75.93°W
Report Text: CYND 221700Z 09009KT 5SM BR OVC009 M06/M08 A3036 RMK SF8 SLP284
Loading
Personal Weather Stations






























Interactive Weather Map New forecast layout! Learn more

10-Day Weather Forecast

Advertisements
Track Severe Weather on mobile